createdAt,value
2022-11-21T00:02:12.672Z,-0.20
2022-11-21T00:04:41.790Z,-0.20
2022-11-21T00:07:11.553Z,-0.30
2022-11-21T00:09:40.906Z,-0.30
2022-11-21T00:12:10.891Z,-0.20
2022-11-21T00:14:40.326Z,-0.20
2022-11-21T00:17:11.699Z,-0.20
2022-11-21T00:19:40.744Z,-0.20
2022-11-21T00:22:10.519Z,-0.30
2022-11-21T00:24:40.108Z,-0.30
2022-11-21T00:27:10.233Z,-0.20
2022-11-21T00:29:39.708Z,-0.20
2022-11-21T00:32:10.069Z,-0.20
2022-11-21T00:34:40.954Z,-0.20
2022-11-21T00:37:11.158Z,-0.30
2022-11-21T00:39:40.512Z,-0.20
2022-11-21T00:42:10.959Z,-0.20
2022-11-21T00:44:40.328Z,-0.20
2022-11-21T00:47:10.601Z,-0.30
2022-11-21T00:49:41.523Z,-0.30
2022-11-21T00:52:11.268Z,-0.30
2022-11-21T00:54:40.649Z,-0.30
2022-11-21T00:57:10.760Z,-0.20
2022-11-21T00:59:40.144Z,-0.20
2022-11-21T01:02:10.936Z,-0.20
2022-11-21T01:04:42.102Z,-0.20
2022-11-21T01:07:14.727Z,-0.20
2022-11-21T01:09:44.289Z,-0.30
2022-11-21T01:12:15.287Z,-0.20
2022-11-21T01:14:44.618Z,-0.20
2022-11-21T01:17:14.853Z,-0.30
2022-11-21T01:19:46.136Z,-0.30
2022-11-21T01:22:16.308Z,-0.20
2022-11-21T01:24:45.759Z,-0.20
2022-11-21T01:27:15.568Z,-0.20
2022-11-21T01:29:45.064Z,-0.20
2022-11-21T01:32:15.034Z,-0.20
2022-11-21T01:34:45.827Z,-0.20
2022-11-21T01:37:15.606Z,-0.30
2022-11-21T01:39:44.968Z,-0.30
2022-11-21T01:42:15.535Z,-0.40
2022-11-21T01:44:50.688Z,-0.30
2022-11-21T01:47:22.975Z,-0.30
2022-11-21T01:49:55.289Z,-0.30
2022-11-21T01:52:28.983Z,-0.40
2022-11-21T01:55:03.065Z,-0.40
2022-11-21T01:57:37.411Z,-0.40
2022-11-21T02:00:11.063Z,-0.40
2022-11-21T02:02:44.004Z,-0.40
2022-11-21T02:05:19.094Z,-0.40
2022-11-21T02:07:51.384Z,-0.50
2022-11-21T02:10:21.110Z,-0.40
2022-11-21T02:12:53.494Z,-0.40
2022-11-21T02:15:25.214Z,-0.40
2022-11-21T02:17:55.200Z,-0.40
2022-11-21T02:20:28.068Z,-0.40
2022-11-21T02:23:06.990Z,-0.50
2022-11-21T02:25:39.460Z,-0.50
2022-11-21T02:28:11.431Z,-0.40
2022-11-21T02:30:43.445Z,-0.40
2022-11-21T02:33:14.757Z,-0.40
2022-11-21T02:35:44.415Z,-0.40
2022-11-21T02:38:19.931Z,-0.40
2022-11-21T02:40:56.690Z,-0.40
2022-11-21T02:43:30.139Z,-0.50
2022-11-21T02:46:00.586Z,-0.40
2022-11-21T02:48:31.150Z,-0.50
2022-11-21T02:51:00.695Z,-0.40
2022-11-21T02:53:30.433Z,-0.50
2022-11-21T02:56:01.866Z,-0.50
2022-11-21T02:58:32.320Z,-0.50
2022-11-21T03:01:01.756Z,-0.50
2022-11-21T03:03:31.571Z,-0.50
2022-11-21T03:06:01.046Z,-0.50
2022-11-21T03:08:31.271Z,-0.50
2022-11-21T03:11:02.161Z,-0.50
2022-11-21T03:13:32.260Z,-0.50
2022-11-21T03:16:01.926Z,-0.50
2022-11-21T03:18:31.650Z,-0.40
2022-11-21T03:21:01.040Z,-0.40
2022-11-21T03:23:30.993Z,-0.50
2022-11-21T03:26:02.787Z,-0.40
2022-11-21T03:28:33.288Z,-0.50
2022-11-21T03:31:02.752Z,-0.40
2022-11-21T03:33:33.017Z,-0.50
2022-11-21T03:36:02.596Z,-0.40
2022-11-21T03:38:33.008Z,-0.40
2022-11-21T03:41:27.654Z,-0.40
2022-11-21T03:43:58.584Z,-0.40
2022-11-21T03:46:28.476Z,-0.40
2022-11-21T03:48:58.662Z,-0.40
2022-11-21T03:51:28.378Z,-0.40
2022-11-21T03:53:58.574Z,-0.40
2022-11-21T03:56:29.691Z,-0.30
2022-11-21T03:59:00.003Z,-0.40
2022-11-21T04:01:33.816Z,-0.40
2022-11-21T04:04:06.881Z,-0.30
2022-11-21T04:06:36.211Z,-0.30
2022-11-21T04:09:06.501Z,-0.30
2022-11-21T04:11:37.299Z,-0.30
2022-11-21T04:14:07.127Z,-0.20
2022-11-21T04:16:37.017Z,-0.20
2022-11-21T04:19:06.609Z,-0.30
2022-11-21T04:21:35.889Z,-0.20
2022-11-21T04:24:06.555Z,-0.30
2022-11-21T04:26:37.271Z,-0.40
2022-11-21T04:29:07.436Z,-0.30
2022-11-21T04:31:36.915Z,-0.30
2022-11-21T04:34:06.847Z,-0.30
2022-11-21T04:36:36.364Z,-0.30
2022-11-21T04:39:06.750Z,-0.30
2022-11-21T04:41:37.566Z,-0.30
2022-11-21T04:44:07.923Z,-0.30
2022-11-21T04:46:37.396Z,-0.40
2022-11-21T04:49:07.351Z,-0.40
2022-11-21T04:51:36.591Z,-0.50
2022-11-21T04:54:06.631Z,-0.40
2022-11-21T04:56:38.422Z,-0.40
2022-11-21T04:59:08.419Z,-0.50
2022-11-21T05:01:39.224Z,-0.60
2022-11-21T05:04:08.910Z,-0.50
2022-11-21T05:06:38.491Z,-0.60
2022-11-21T05:09:08.735Z,-0.60
2022-11-21T05:11:57.080Z,-0.60
2022-11-21T05:14:27.844Z,-0.60
2022-11-21T05:16:57.290Z,-0.60
2022-11-21T05:19:27.248Z,-0.60
2022-11-21T05:21:56.806Z,-0.60
2022-11-21T05:24:27.397Z,-0.70
2022-11-21T05:26:58.508Z,-0.70
2022-11-21T05:29:28.779Z,-0.70
2022-11-21T05:31:58.019Z,-0.70
2022-11-21T05:34:29.014Z,-0.60
2022-11-21T05:36:59.674Z,-0.60
2022-11-21T05:39:29.407Z,-0.60
2022-11-21T05:42:03.202Z,-0.60
2022-11-21T05:44:32.362Z,-0.60
2022-11-21T05:47:01.636Z,-0.60
2022-11-21T05:49:31.578Z,-0.50
2022-11-21T05:52:00.954Z,-0.40
2022-11-21T05:54:31.087Z,-0.40
2022-11-21T05:57:02.521Z,-0.40
2022-11-21T05:59:32.503Z,-0.40
2022-11-21T06:02:19.215Z,-0.50
2022-11-21T06:04:49.410Z,-0.50
2022-11-21T06:07:18.728Z,-0.40
2022-11-21T06:09:48.824Z,-0.40
2022-11-21T06:12:24.178Z,-0.40
2022-11-21T06:14:55.153Z,-0.40
2022-11-21T06:17:24.653Z,-0.50
2022-11-21T06:19:54.602Z,-0.50
2022-11-21T06:22:24.063Z,-0.50
2022-11-21T06:24:53.899Z,-0.50
2022-11-21T06:27:24.612Z,-0.40
2022-11-21T06:29:54.620Z,-0.50
2022-11-21T06:32:23.910Z,-0.50
2022-11-21T06:34:54.104Z,-0.50
2022-11-21T06:37:23.679Z,-0.60
2022-11-21T06:39:53.987Z,-0.60
2022-11-21T06:42:24.822Z,-0.70
2022-11-21T06:44:54.788Z,-0.70
2022-11-21T06:47:24.308Z,-0.70
2022-11-21T06:49:54.265Z,-0.80
2022-11-21T06:52:23.515Z,-0.70
2022-11-21T06:54:53.833Z,-0.80
2022-11-21T06:57:24.625Z,-0.90
2022-11-21T06:59:54.603Z,-0.90
2022-11-21T07:02:23.855Z,-0.90
2022-11-21T07:04:53.964Z,-0.90
2022-11-21T07:07:23.660Z,-0.90
2022-11-21T07:09:53.570Z,-0.90
2022-11-21T07:12:41.775Z,-0.90
2022-11-21T07:15:12.822Z,-0.90
2022-11-21T07:17:42.172Z,-0.90
2022-11-21T07:20:13.859Z,-0.90
2022-11-21T07:22:42.794Z,-0.80
2022-11-21T07:25:12.798Z,-0.80
2022-11-21T07:27:43.647Z,-0.80
2022-11-21T07:30:14.657Z,-0.90
2022-11-21T07:32:43.899Z,-0.80
2022-11-21T07:35:14.113Z,-0.80
2022-11-21T07:37:43.572Z,-0.80
2022-11-21T07:40:15.085Z,-0.80
2022-11-21T07:42:45.910Z,-0.80
2022-11-21T07:45:17.515Z,-0.80
2022-11-21T07:47:47.370Z,-0.90
2022-11-21T07:50:17.613Z,-0.80
2022-11-21T07:52:47.092Z,-0.70
2022-11-21T07:55:17.032Z,-0.80
2022-11-21T07:57:47.866Z,-0.80
2022-11-21T08:00:19.128Z,-0.80
2022-11-21T08:02:48.530Z,-0.80
2022-11-21T08:05:18.234Z,-0.80
2022-11-21T08:07:47.767Z,-0.80
2022-11-21T08:10:17.995Z,-0.70
2022-11-21T08:12:48.998Z,-0.70
2022-11-21T08:15:18.812Z,-0.60
2022-11-21T08:17:48.544Z,-0.80
2022-11-21T08:20:18.526Z,-0.80
2022-11-21T08:22:47.996Z,-0.90
2022-11-21T08:25:17.988Z,-0.90
2022-11-21T08:27:48.959Z,-0.90
2022-11-21T08:30:18.622Z,-0.80
2022-11-21T08:32:47.971Z,-1.00
2022-11-21T08:35:18.559Z,-0.90
2022-11-21T08:37:48.034Z,-0.90
2022-11-21T08:40:18.340Z,-0.80
2022-11-21T08:42:49.520Z,-0.80
2022-11-21T08:45:19.428Z,-0.60
2022-11-21T08:47:49.241Z,-0.60
2022-11-21T08:50:19.474Z,-0.60
2022-11-21T08:52:49.143Z,-0.50
2022-11-21T08:55:19.468Z,-0.30
2022-11-21T08:57:50.439Z,-0.20
2022-11-21T09:00:21.032Z,0.00
2022-11-21T09:02:50.736Z,0.00
2022-11-21T09:05:20.993Z,0.00
2022-11-21T09:07:50.570Z,0.00
2022-11-21T09:10:20.615Z,-0.10
2022-11-21T09:12:51.452Z,0.00
2022-11-21T09:15:38.103Z,0.00
2022-11-21T09:18:08.374Z,-0.10
2022-11-21T09:20:42.580Z,-0.20
2022-11-21T09:23:14.564Z,-0.20
2022-11-21T09:25:45.377Z,-0.30
2022-11-21T09:28:16.699Z,-0.40
2022-11-21T09:30:46.651Z,-0.30
2022-11-21T09:33:18.317Z,-0.20
2022-11-21T09:35:48.514Z,-0.20
2022-11-21T09:38:23.646Z,-0.30
2022-11-21T09:40:58.141Z,-0.40
2022-11-21T09:43:54.471Z,-0.50
2022-11-21T09:46:33.290Z,-0.50
2022-11-21T09:49:06.760Z,-0.60
2022-11-21T09:51:38.851Z,-0.70
2022-11-21T09:54:15.292Z,-0.70
2022-11-21T09:56:47.026Z,-0.70
2022-11-21T09:59:32.950Z,-0.80
2022-11-21T10:02:03.057Z,-1.00
2022-11-21T10:04:33.484Z,-1.10
2022-11-21T10:07:06.325Z,-1.20
2022-11-21T10:09:49.164Z,-1.20
2022-11-21T10:12:40.287Z,-1.20
2022-11-21T10:15:23.894Z,-1.20
2022-11-21T10:18:07.795Z,-1.00
2022-11-21T10:20:50.353Z,-1.00
2022-11-21T10:23:50.048Z,-0.80
2022-11-21T10:26:24.708Z,-1.00
2022-11-21T10:28:58.905Z,-1.00
2022-11-21T10:31:33.408Z,-1.00
2022-11-21T10:34:05.651Z,-1.00
2022-11-21T10:36:39.767Z,-0.90
2022-11-21T10:39:19.376Z,-0.70
2022-11-21T10:41:52.906Z,-0.70
2022-11-21T10:44:53.521Z,-0.40
2022-11-21T10:47:29.217Z,-0.40
2022-11-21T10:50:05.416Z,-0.50
2022-11-21T10:52:37.465Z,-0.50
2022-11-21T10:55:11.471Z,-0.50
2022-11-21T10:57:45.583Z,-0.40
2022-11-21T11:00:24.938Z,-0.30
2022-11-21T11:03:19.397Z,-0.10
2022-11-21T11:05:59.272Z,-0.30
2022-11-21T11:08:32.043Z,-0.30
2022-11-21T11:11:07.594Z,-0.30
2022-11-21T11:13:56.536Z,-0.50
2022-11-21T11:16:27.863Z,-0.50
2022-11-21T11:19:01.786Z,-0.50
2022-11-21T11:21:44.522Z,0.00
2022-11-21T11:24:24.866Z,0.50
2022-11-21T11:26:58.267Z,1.30
2022-11-21T11:29:30.683Z,1.60
2022-11-21T11:32:04.743Z,1.60
2022-11-21T11:34:42.131Z,1.90
2022-11-21T11:37:15.380Z,1.80
2022-11-21T11:39:56.427Z,2.20
2022-11-21T11:43:08.884Z,2.30
2022-11-21T11:46:14.054Z,2.70
2022-11-21T11:49:11.448Z,2.40
2022-11-21T11:51:41.735Z,2.30
2022-11-21T11:54:18.487Z,2.40
2022-11-21T11:56:48.836Z,2.00
2022-11-21T11:59:22.538Z,2.10
2022-11-21T12:01:57.768Z,2.40
2022-11-21T12:04:31.593Z,3.00
2022-11-21T12:10:06.537Z,2.50
2022-11-21T12:12:39.620Z,2.60
2022-11-21T12:15:34.187Z,2.70
2022-11-21T12:18:15.678Z,2.60
2022-11-21T12:20:55.283Z,2.60
2022-11-21T12:23:29.625Z,2.40
2022-11-21T12:26:09.644Z,2.10
2022-11-21T12:28:49.102Z,2.00
2022-11-21T12:31:25.050Z,1.40
2022-11-21T12:34:00.947Z,1.10
2022-11-21T12:36:37.337Z,0.80
2022-11-21T12:39:28.617Z,0.50
2022-11-21T12:42:25.796Z,0.20
2022-11-21T12:45:07.185Z,-0.10
2022-11-21T12:48:36.183Z,-0.10
2022-11-21T12:52:10.197Z,-0.10
2022-11-21T12:55:08.729Z,-0.40
2022-11-21T12:57:50.455Z,-0.70
2022-11-21T13:00:25.767Z,-0.90
2022-11-21T13:03:18.543Z,-1.00
2022-11-21T13:05:53.409Z,-1.00
2022-11-21T13:08:25.185Z,-1.00
2022-11-21T13:11:17.075Z,-1.10
2022-11-21T13:13:49.676Z,-1.10
2022-11-21T13:16:37.109Z,-1.10
2022-11-21T13:19:19.331Z,-1.20
2022-11-21T13:21:50.973Z,-1.20
2022-11-21T13:24:58.335Z,-1.30
2022-11-21T13:27:39.233Z,-1.40
2022-11-21T13:30:26.024Z,-1.40
2022-11-21T13:32:56.957Z,-1.50
2022-11-21T13:36:01.717Z,-1.50
2022-11-21T13:38:31.495Z,-1.60
2022-11-21T13:41:18.090Z,-1.60
2022-11-21T13:43:49.266Z,-1.60
2022-11-21T13:46:53.968Z,-1.50
2022-11-21T13:49:28.296Z,-1.60
2022-11-21T13:51:58.260Z,-1.60
2022-11-21T13:55:12.773Z,-1.50
2022-11-21T13:57:55.266Z,-1.50
2022-11-21T14:01:15.128Z,-1.50
2022-11-21T14:04:25.748Z,-1.60
2022-11-21T14:06:55.496Z,-1.60
2022-11-21T14:09:30.759Z,-1.60
2022-11-21T14:12:03.528Z,-1.60
2022-11-21T14:14:37.574Z,-1.70
2022-11-21T14:17:32.040Z,-1.70
2022-11-21T14:20:04.530Z,-1.60
2022-11-21T14:22:45.613Z,-1.60
2022-11-21T14:25:20.562Z,-1.50
2022-11-21T14:27:54.516Z,-1.60
2022-11-21T14:30:34.568Z,-1.60
2022-11-21T14:33:32.456Z,-1.60
2022-11-21T14:36:05.561Z,-1.70
2022-11-21T14:38:42.297Z,-1.60
2022-11-21T14:41:26.920Z,-1.60
2022-11-21T14:44:18.206Z,-1.60
2022-11-21T14:46:48.970Z,-1.60
2022-11-21T14:49:29.630Z,-1.60
2022-11-21T14:52:19.819Z,-1.60
2022-11-21T14:55:28.660Z,-1.60
2022-11-21T14:57:44.763Z,-1.60
2022-11-21T15:00:57.604Z,-1.70
2022-11-21T15:03:21.028Z,-1.60
2022-11-21T15:06:04.560Z,-1.70
2022-11-21T15:09:51.322Z,-1.70
2022-11-21T15:11:30.221Z,-1.70
2022-11-21T15:14:16.684Z,-1.70
2022-11-21T15:16:49.375Z,-1.60
2022-11-21T15:19:23.501Z,-1.70
2022-11-21T15:21:57.575Z,-1.60
2022-11-21T15:24:32.726Z,-1.60
2022-11-21T15:27:02.716Z,-1.60
2022-11-21T15:29:33.239Z,-1.70
2022-11-21T15:32:15.644Z,-1.60
2022-11-21T15:34:47.328Z,-1.60
2022-11-21T15:37:20.655Z,-1.60
2022-11-21T15:39:51.630Z,-1.60
2022-11-21T15:42:36.690Z,-1.70
2022-11-21T15:45:24.119Z,-1.70
2022-11-21T15:47:55.885Z,-1.60
2022-11-21T15:50:26.675Z,-1.60
2022-11-21T15:52:57.930Z,-1.60
2022-11-21T15:55:30.429Z,-1.60
2022-11-21T15:58:00.347Z,-1.60
2022-11-21T16:00:29.673Z,-1.60
2022-11-21T16:02:59.647Z,-1.60
2022-11-21T16:05:29.211Z,-1.60
2022-11-21T16:08:00.710Z,-1.70
2022-11-21T16:10:30.394Z,-1.70
2022-11-21T16:13:00.372Z,-1.70
2022-11-21T16:15:30.002Z,-1.70
2022-11-21T16:17:59.712Z,-1.70
2022-11-21T16:20:29.682Z,-1.70
2022-11-21T16:23:01.059Z,-1.70
2022-11-21T16:25:30.605Z,-1.70
2022-11-21T16:28:05.742Z,-1.70
2022-11-21T16:30:40.106Z,-1.70
2022-11-21T16:33:09.874Z,-1.70
2022-11-21T16:35:40.915Z,-1.70
2022-11-21T16:38:12.571Z,-1.60
2022-11-21T16:40:41.991Z,-1.70
2022-11-21T16:43:13.328Z,-1.70
2022-11-21T16:45:42.851Z,-1.70
2022-11-21T16:48:12.683Z,-1.70
2022-11-21T16:50:42.043Z,-1.70
2022-11-21T16:53:14.077Z,-1.70
2022-11-21T16:55:43.632Z,-1.70
2022-11-21T16:58:13.716Z,-1.70
2022-11-21T17:00:43.051Z,-1.70
2022-11-21T17:03:12.881Z,-1.70
2022-11-21T17:05:42.158Z,-1.70
2022-11-21T17:08:13.885Z,-1.70
2022-11-21T17:10:42.751Z,-1.70
2022-11-21T17:13:12.700Z,-1.70
2022-11-21T17:15:42.188Z,-1.70
2022-11-21T17:18:11.939Z,-1.70
2022-11-21T17:20:41.596Z,-1.60
2022-11-21T17:23:12.902Z,-1.60
2022-11-21T17:25:42.412Z,-1.60
2022-11-21T17:28:12.236Z,-1.60
2022-11-21T17:30:44.466Z,-1.60
2022-11-21T17:33:14.502Z,-1.60
2022-11-21T17:35:44.530Z,-1.60
2022-11-21T17:38:16.596Z,-1.70
2022-11-21T17:40:45.939Z,-1.70
2022-11-21T17:43:15.558Z,-1.60
2022-11-21T17:45:45.225Z,-1.60
2022-11-21T17:48:15.357Z,-1.70
2022-11-21T17:50:44.824Z,-1.60
2022-11-21T17:53:16.179Z,-1.60
2022-11-21T17:55:45.268Z,-1.60
2022-11-21T17:58:15.389Z,-1.60
2022-11-21T18:00:44.872Z,-1.50
2022-11-21T18:03:14.691Z,-1.50
2022-11-21T18:05:47.504Z,-1.50
2022-11-21T18:08:22.597Z,-1.50
2022-11-21T18:10:54.792Z,-1.40
2022-11-21T18:13:24.581Z,-1.40
2022-11-21T18:15:54.198Z,-1.40
2022-11-21T18:18:23.959Z,-1.40
2022-11-21T18:20:53.711Z,-1.40
2022-11-21T18:23:25.068Z,-1.40
2022-11-21T18:25:54.615Z,-1.40
2022-11-21T18:28:24.650Z,-1.40
2022-11-21T18:30:54.373Z,-1.40
2022-11-21T18:33:24.355Z,-1.40
2022-11-21T18:35:53.687Z,-1.40
2022-11-21T18:38:47.695Z,-1.40
2022-11-21T18:41:16.926Z,-1.40
2022-11-21T18:43:52.005Z,-1.40
2022-11-21T18:46:22.840Z,-1.40
2022-11-21T18:49:02.833Z,-1.30
2022-11-21T18:51:35.298Z,-1.30
2022-11-21T18:54:08.814Z,-1.30
2022-11-21T18:56:39.506Z,-1.30
2022-11-21T18:59:10.054Z,-1.30
2022-11-21T19:01:40.796Z,-1.30
2022-11-21T19:04:11.319Z,-1.30
2022-11-21T19:06:40.789Z,-1.30
2022-11-21T19:09:12.472Z,-1.30
2022-11-21T19:11:41.499Z,-1.30
2022-11-21T19:14:11.568Z,-1.30
2022-11-21T19:16:41.194Z,-1.30
2022-11-21T19:19:33.502Z,-1.30
2022-11-21T19:22:02.067Z,-1.30
2022-11-21T19:24:33.685Z,-1.30
2022-11-21T19:27:04.896Z,-1.30
2022-11-21T19:29:34.912Z,-1.20
2022-11-21T19:32:04.330Z,-1.30
2022-11-21T19:34:34.088Z,-1.20
2022-11-21T19:37:03.386Z,-1.20
2022-11-21T19:39:34.574Z,-1.20
2022-11-21T19:42:04.172Z,-1.20
2022-11-21T19:44:35.409Z,-1.20
2022-11-21T19:47:04.964Z,-1.20
2022-11-21T19:49:34.602Z,-1.10
2022-11-21T19:52:04.011Z,-1.20
2022-11-21T19:54:36.043Z,-1.20
2022-11-21T19:57:10.740Z,-1.20
2022-11-21T19:59:46.607Z,-1.30
2022-11-21T20:02:19.713Z,-1.20
2022-11-21T20:04:49.480Z,-1.30
2022-11-21T20:07:18.971Z,-1.30
2022-11-21T20:09:50.247Z,-1.30
2022-11-21T20:12:19.716Z,-1.20
2022-11-21T20:14:49.771Z,-1.20
2022-11-21T20:17:19.303Z,-1.20
2022-11-21T20:19:50.814Z,-1.20
2022-11-21T20:22:20.562Z,-1.20
2022-11-21T20:24:52.199Z,-1.20
2022-11-21T20:27:21.537Z,-1.20
2022-11-21T20:29:51.366Z,-1.20
2022-11-21T20:32:21.016Z,-1.20
2022-11-21T20:34:51.179Z,-1.20
2022-11-21T20:37:20.399Z,-1.10
2022-11-21T20:39:51.810Z,-1.10
2022-11-21T20:42:21.051Z,-1.10
2022-11-21T20:45:54.548Z,-1.20
2022-11-21T20:47:40.027Z,-1.10
2022-11-21T20:50:10.347Z,-1.10
2022-11-21T20:55:32.299Z,-1.10
2022-11-21T20:58:01.992Z,-1.10
2022-11-21T21:00:32.003Z,-1.10
2022-11-21T21:03:01.495Z,-1.00
2022-11-21T21:05:31.652Z,-0.90
2022-11-21T21:08:01.348Z,-0.90
2022-11-21T21:10:51.480Z,-0.90
2022-11-21T21:13:22.046Z,-1.00
2022-11-21T21:15:51.830Z,-1.00
2022-11-21T21:18:21.295Z,-1.00
2022-11-21T21:21:15.437Z,-1.00
2022-11-21T21:23:42.687Z,-1.00
2022-11-21T21:26:16.544Z,-1.00
2022-11-21T21:28:46.347Z,-1.00
2022-11-21T21:31:18.177Z,-1.00
2022-11-21T21:33:47.941Z,-1.00
2022-11-21T21:36:19.466Z,-1.00
2022-11-21T21:38:52.729Z,-1.00
2022-11-21T21:41:25.593Z,-1.00
2022-11-21T21:43:56.539Z,-1.00
2022-11-21T21:46:29.366Z,-1.10
2022-11-21T21:48:59.826Z,-1.10
2022-11-21T21:51:31.535Z,-1.00
2022-11-21T21:54:01.547Z,-1.10
2022-11-21T21:56:33.942Z,-1.00
2022-11-21T21:59:03.409Z,-1.10
2022-11-21T22:01:34.404Z,-1.10
2022-11-21T22:04:06.522Z,-1.10
2022-11-21T22:06:36.948Z,-1.10
2022-11-21T22:09:06.333Z,-1.10
2022-11-21T22:11:40.367Z,-1.10
2022-11-21T22:14:14.561Z,-1.10
2022-11-21T22:16:45.285Z,-1.20
2022-11-21T22:19:15.775Z,-1.10
2022-11-21T22:21:46.002Z,-1.20
2022-11-21T22:24:25.334Z,-1.20
2022-11-21T22:26:57.903Z,-1.20
2022-11-21T22:29:28.016Z,-1.20
2022-11-21T22:31:57.719Z,-1.20
2022-11-21T22:34:27.033Z,-1.20
2022-11-21T22:36:57.102Z,-1.20
2022-11-21T22:39:27.809Z,-1.20
2022-11-21T22:42:00.073Z,-1.20
2022-11-21T22:44:29.698Z,-1.30
2022-11-21T22:47:00.156Z,-1.20
2022-11-21T22:49:29.451Z,-1.20
2022-11-21T22:51:59.474Z,-1.20
2022-11-21T22:54:29.708Z,-1.30
2022-11-21T22:57:01.273Z,-1.20
2022-11-21T22:59:30.314Z,-1.20
2022-11-21T23:02:00.755Z,-1.30
2022-11-21T23:04:30.161Z,-1.30
2022-11-21T23:07:00.120Z,-1.20
2022-11-21T23:09:29.784Z,-1.20
2022-11-21T23:12:01.384Z,-1.20
2022-11-21T23:14:30.582Z,-1.20
2022-11-21T23:17:01.049Z,-1.10
2022-11-21T23:19:30.550Z,-1.10
2022-11-21T23:22:00.404Z,-1.20
2022-11-21T23:24:29.951Z,-1.20
2022-11-21T23:27:02.062Z,-1.30
2022-11-21T23:29:31.922Z,-1.20
2022-11-21T23:32:02.020Z,-1.30
2022-11-21T23:34:31.627Z,-1.30
2022-11-21T23:37:01.794Z,-1.30
2022-11-21T23:39:31.775Z,-1.30
2022-11-21T23:42:03.528Z,-1.40
2022-11-21T23:44:32.871Z,-1.40
2022-11-21T23:47:02.694Z,-1.50
2022-11-21T23:49:32.448Z,-1.50
2022-11-21T23:52:02.584Z,-1.50
2022-11-21T23:54:31.797Z,-1.50
2022-11-21T23:57:03.534Z,-1.60
2022-11-21T23:59:33.418Z,-1.70
